Time;durP1;ratioP1;P1;durP2;ratioP2;P2;SDS_P1;SDS_P2;PMS_P1;PMS_P2;Temp;Humidity;BMP_temperature;BMP_pressure;BME280_temperature;BME280_humidity;BME280_pressure;Samples;Min_cycle;Max_cycle;Signal;HPM_P1;HPM_P2
2022/07/07 00:00:39;;;;;;;4.40;4.00;;;18.20;99.90;;;;;;5052026;28;20473;-47
2022/07/07 00:03:06;;;;;;;5.73;4.20;;;18.20;99.90;;;;;;5052498;28;20438;-47
2022/07/07 00:05:33;;;;;;;5.13;4.40;;;18.20;99.90;;;;;;5052060;28;20449;-45
2022/07/07 00:08:00;;;;;;;5.60;4.23;;;18.20;99.90;;;;;;5051861;28;21005;-47
2022/07/07 00:10:28;;;;;;;4.87;4.30;;;18.20;99.90;;;;;;5051698;28;20567;-47
2022/07/07 00:12:55;;;;;;;7.93;4.23;;;18.20;99.90;;;;;;5051631;28;20572;-46
2022/07/07 00:15:22;;;;;;;4.33;3.93;;;18.10;99.90;;;;;;5051827;28;20751;-48
2022/07/07 00:17:49;;;;;;;4.53;3.80;;;18.20;99.90;;;;;;5051761;28;20954;-46
2022/07/07 00:20:16;;;;;;;5.13;4.70;;;18.20;99.90;;;;;;5051458;28;20434;-49
2022/07/07 00:22:43;;;;;;;4.57;3.90;;;18.10;99.90;;;;;;5051717;28;20531;-45
2022/07/07 00:25:10;;;;;;;5.83;4.33;;;18.20;99.90;;;;;;5051612;28;20469;-48
2022/07/07 00:27:39;;;;;;;4.40;4.10;;;18.10;99.90;;;;;;5051784;28;20437;-48
2022/07/07 00:30:07;;;;;;;4.93;4.00;;;18.00;99.90;;;;;;5051272;28;20445;-46
2022/07/07 00:32:34;;;;;;;4.20;3.60;;;17.90;99.90;;;;;;5051077;28;20931;-47
2022/07/07 00:35:01;;;;;;;3.77;3.47;;;17.90;99.90;;;;;;5051335;28;20438;-50
2022/07/07 00:37:28;;;;;;;4.53;3.87;;;17.90;99.90;;;;;;5051522;28;20465;-46
2022/07/07 00:39:55;;;;;;;4.20;3.90;;;17.90;99.90;;;;;;5051481;28;20437;-45
2022/07/07 00:42:22;;;;;;;4.63;3.80;;;18.00;99.90;;;;;;5051135;28;20475;-48
2022/07/07 00:44:50;;;;;;;5.60;4.07;;;18.00;99.90;;;;;;5051156;28;20742;-45
2022/07/07 00:47:19;;;;;;;4.90;4.40;;;17.90;99.90;;;;;;5051065;28;20445;-47
2022/07/07 00:49:46;;;;;;;4.40;4.00;;;17.80;99.90;;;;;;5051070;28;20585;-49
2022/07/07 00:52:13;;;;;;;4.47;3.83;;;17.80;99.90;;;;;;5050743;28;20576;-45
2022/07/07 00:54:40;;;;;;;5.80;4.00;;;17.70;99.90;;;;;;5051126;28;20473;-49
2022/07/07 00:57:08;;;;;;;4.77;4.37;;;17.60;99.90;;;;;;5051490;28;20479;-46
2022/07/07 00:59:35;;;;;;;5.47;4.97;;;17.50;99.90;;;;;;5050657;28;20503;-45
2022/07/07 01:02:04;;;;;;;6.00;5.37;;;17.50;99.90;;;;;;5051011;28;20875;-47
2022/07/07 01:04:30;;;;;;;5.87;5.30;;;17.50;99.90;;;;;;5050863;28;20536;-47
2022/07/07 01:06:58;;;;;;;5.73;5.13;;;17.50;99.90;;;;;;5050709;28;20894;-45
2022/07/07 01:09:25;;;;;;;7.20;6.50;;;17.50;99.90;;;;;;5050876;28;20528;-47
2022/07/07 01:11:55;;;;;;;4.67;4.30;;;17.50;99.90;;;;;;5050514;28;20577;-49
2022/07/07 01:14:23;;;;;;;5.60;5.10;;;17.40;99.90;;;;;;5050776;28;20524;-46
2022/07/07 01:16:51;;;;;;;6.13;4.43;;;17.30;99.90;;;;;;5050591;28;20528;-48
2022/07/07 01:19:20;;;;;;;4.80;4.40;;;17.30;99.90;;;;;;5050472;28;20496;-50
2022/07/07 01:21:54;;;;;;;4.53;4.10;;;17.30;99.90;;;;;;5050629;28;20465;-46
2022/07/07 01:24:23;;;;;;;5.10;4.70;;;17.50;99.90;;;;;;5050500;28;20817;-45
2022/07/07 01:26:50;;;;;;;4.23;3.93;;;17.50;99.90;;;;;;5050925;28;20528;-49
2022/07/07 01:29:17;;;;;;;4.53;4.13;;;17.60;99.90;;;;;;5050083;28;20480;-46
2022/07/07 01:31:44;;;;;;;4.57;4.17;;;17.60;99.90;;;;;;5050411;28;20465;-45
2022/07/07 01:34:11;;;;;;;4.23;3.83;;;17.70;99.90;;;;;;5049892;28;20445;-47
2022/07/07 01:36:38;;;;;;;4.30;3.90;;;17.70;99.90;;;;;;5050173;28;20859;-46
2022/07/07 01:39:05;;;;;;;4.77;4.37;;;17.70;99.90;;;;;;5050320;28;20484;-48
2022/07/07 01:41:33;;;;;;;4.40;4.10;;;17.70;99.90;;;;;;5050168;28;20556;-47
2022/07/07 01:44:00;;;;;;;5.00;4.57;;;17.70;99.90;;;;;;5050345;28;20491;-45
2022/07/07 01:46:27;;;;;;;5.10;4.60;;;17.70;99.90;;;;;;5050215;28;20477;-45
2022/07/07 01:48:54;;;;;;;5.40;4.60;;;17.70;99.90;;;;;;5049914;28;20525;-45
2022/07/07 01:51:21;;;;;;;5.50;4.43;;;17.70;99.90;;;;;;5050348;28;20472;-48
2022/07/07 01:53:48;;;;;;;7.00;4.50;;;17.60;99.90;;;;;;5050077;28;20509;-49
2022/07/07 01:56:15;;;;;;;5.10;4.60;;;17.60;99.90;;;;;;5050088;28;20529;-46
2022/07/07 01:58:43;;;;;;;5.00;4.40;;;17.60;99.90;;;;;;5049451;28;20480;-46
2022/07/07 02:01:10;;;;;;;4.90;4.33;;;17.50;99.90;;;;;;5049775;28;20536;-47
2022/07/07 02:03:37;;;;;;;4.73;4.33;;;17.50;99.90;;;;;;5049836;28;20441;-45
2022/07/07 02:06:04;;;;;;;4.97;4.47;;;17.60;99.90;;;;;;5049990;28;20510;-49
2022/07/07 02:08:31;;;;;;;4.53;4.07;;;17.60;99.90;;;;;;5049581;28;20526;-47
2022/07/07 02:11:13;;;;;;;5.30;4.17;;;17.50;99.90;;;;;;5049500;28;20904;-47
2022/07/07 02:13:41;;;;;;;6.20;4.90;;;17.50;99.90;;;;;;5049826;28;20481;-47
2022/07/07 02:16:10;;;;;;;4.47;4.03;;;17.40;99.90;;;;;;5049767;28;20849;-44
2022/07/07 02:18:39;;;;;;;4.47;4.10;;;17.50;99.90;;;;;;5049740;28;20507;-45
2022/07/07 02:21:07;;;;;;;4.57;4.17;;;17.40;99.90;;;;;;5049755;28;20468;-48
2022/07/07 02:23:34;;;;;;;4.57;4.13;;;17.40;99.90;;;;;;5049557;28;20854;-47
2022/07/07 02:26:01;;;;;;;4.70;4.20;;;17.30;99.90;;;;;;5049739;28;20579;-48
2022/07/07 02:28:29;;;;;;;4.53;4.13;;;17.30;99.90;;;;;;5049623;28;20540;-47
2022/07/07 02:30:57;;;;;;;4.60;4.30;;;17.30;99.90;;;;;;5049341;28;20491;-46
2022/07/07 02:33:26;;;;;;;4.90;4.27;;;17.30;99.90;;;;;;5049091;28;20477;-45
2022/07/07 02:35:54;;;;;;;5.60;4.10;;;17.30;99.90;;;;;;5049435;28;20473;-50
2022/07/07 02:38:22;;;;;;;5.17;3.93;;;17.40;99.90;;;;;;5049413;28;20441;-50
2022/07/07 02:40:49;;;;;;;5.30;4.80;;;17.40;99.90;;;;;;5048979;28;20441;-46
2022/07/07 02:43:17;;;;;;;3.83;3.43;;;17.50;99.90;;;;;;5049527;28;20520;-45
2022/07/07 02:45:45;;;;;;;4.90;4.40;;;17.50;99.90;;;;;;5049784;28;20530;-45
2022/07/07 02:48:14;;;;;;;4.97;4.40;;;17.50;99.90;;;;;;5049333;28;20437;-47
2022/07/07 02:50:43;;;;;;;4.00;3.70;;;17.50;99.90;;;;;;5049212;28;20473;-45
2022/07/07 02:53:11;;;;;;;4.87;4.47;;;17.50;99.90;;;;;;5049136;28;20958;-46
2022/07/07 02:55:39;;;;;;;5.57;5.07;;;17.30;99.90;;;;;;5049651;28;20441;-46
2022/07/07 02:58:08;;;;;;;4.77;4.37;;;17.10;99.90;;;;;;5049280;28;20537;-49
2022/07/07 03:00:36;;;;;;;6.10;5.10;;;16.90;99.90;;;;;;5049186;28;20528;-46
2022/07/07 03:03:04;;;;;;;4.77;4.33;;;16.90;99.90;;;;;;5049357;28;20514;-46
2022/07/07 03:05:32;;;;;;;4.97;4.57;;;17.00;99.90;;;;;;5049270;28;20473;-45
2022/07/07 03:08:00;;;;;;;6.10;4.60;;;17.10;99.90;;;;;;5048899;28;20464;-44
2022/07/07 03:10:28;;;;;;;5.00;4.60;;;17.10;99.90;;;;;;5051739;28;20691;-45
2022/07/07 03:12:55;;;;;;;4.97;4.57;;;17.20;99.90;;;;;;5053036;28;20546;-49
2022/07/07 03:15:22;;;;;;;5.33;4.90;;;17.20;99.90;;;;;;5053078;28;20441;-45
2022/07/07 03:17:51;;;;;;;6.60;4.23;;;17.30;99.90;;;;;;5052897;28;21004;-47
2022/07/07 03:20:19;;;;;;;4.57;4.20;;;17.30;99.90;;;;;;5052644;28;20445;-45
2022/07/07 03:22:46;;;;;;;6.47;4.10;;;17.20;99.90;;;;;;5052562;28;20462;-47
2022/07/07 03:25:15;;;;;;;4.37;3.97;;;17.20;99.90;;;;;;5052740;28;20441;-45
2022/07/07 03:27:42;;;;;;;3.90;3.60;;;17.20;99.90;;;;;;5053100;28;20461;-46
2022/07/07 03:30:10;;;;;;;5.30;4.80;;;17.20;99.90;;;;;;5052543;28;20857;-45
2022/07/07 03:32:38;;;;;;;4.37;4.07;;;17.20;99.90;;;;;;5052121;28;20469;-46
2022/07/07 03:35:08;;;;;;;3.60;3.30;;;17.20;99.90;;;;;;5052958;28;20473;-45
2022/07/07 03:37:34;;;;;;;5.83;4.43;;;17.20;99.90;;;;;;5052602;28;20456;-47
2022/07/07 03:40:02;;;;;;;4.53;4.13;;;17.20;99.90;;;;;;5052313;28;20528;-46
2022/07/07 03:42:30;;;;;;;4.50;4.20;;;17.20;99.90;;;;;;5053683;28;20475;-49
2022/07/07 03:44:57;;;;;;;4.67;4.27;;;17.20;99.90;;;;;;5052431;28;20477;-48
2022/07/07 03:47:24;;;;;;;4.77;4.23;;;17.20;99.90;;;;;;5052483;28;20528;-45
2022/07/07 03:49:51;;;;;;;4.50;4.10;;;17.20;99.90;;;;;;5052267;28;20543;-45
2022/07/07 03:52:17;;;;;;;4.30;3.90;;;17.10;99.90;;;;;;5052127;28;20897;-49
2022/07/07 03:54:44;;;;;;;5.30;4.53;;;17.00;99.90;;;;;;5052206;28;20484;-45
2022/07/07 03:57:11;;;;;;;4.27;3.87;;;17.00;99.90;;;;;;5052206;28;20445;-49
2022/07/07 03:59:40;;;;;;;4.67;4.27;;;16.90;99.90;;;;;;5051706;28;20710;-46
2022/07/07 04:02:07;;;;;;;5.70;4.33;;;16.60;99.90;;;;;;5052217;28;20461;-46
2022/07/07 04:04:34;;;;;;;5.20;4.80;;;16.70;99.90;;;;;;5051979;28;20954;-45
2022/07/07 04:07:00;;;;;;;4.70;4.30;;;16.80;99.90;;;;;;5051932;28;20723;-47
2022/07/07 04:09:27;;;;;;;6.43;4.03;;;16.80;99.90;;;;;;5051761;28;20773;-45
2022/07/07 04:11:54;;;;;;;4.30;3.90;;;16.90;99.90;;;;;;5052256;28;20544;-49
2022/07/07 04:14:21;;;;;;;4.40;3.93;;;16.80;99.90;;;;;;5052194;28;20568;-48
2022/07/07 04:16:49;;;;;;;4.13;3.80;;;16.90;99.90;;;;;;5051712;28;20970;-45
2022/07/07 04:19:16;;;;;;;5.03;4.23;;;16.90;99.90;;;;;;5051923;28;20469;-47
2022/07/07 04:21:43;;;;;;;5.73;3.70;;;16.90;99.90;;;;;;5051387;28;20544;-46
2022/07/07 04:24:10;;;;;;;4.47;4.17;;;17.00;99.90;;;;;;5051921;28;20452;-45
2022/07/07 04:26:37;;;;;;;5.63;5.10;;;17.00;99.90;;;;;;5052082;28;20519;-50
2022/07/07 04:29:05;;;;;;;5.43;4.90;;;17.00;99.90;;;;;;5051282;28;20863;-45
2022/07/07 04:31:32;;;;;;;5.30;4.83;;;17.00;99.90;;;;;;5051726;28;20493;-47
2022/07/07 04:34:00;;;;;;;6.50;4.63;;;17.00;99.90;;;;;;5051101;28;20523;-48
2022/07/07 04:36:27;;;;;;;5.90;5.00;;;17.00;99.90;;;;;;5051478;28;20445;-45
2022/07/07 04:38:54;;;;;;;5.03;4.50;;;17.00;99.90;;;;;;5051113;28;20515;-48
2022/07/07 04:41:21;;;;;;;4.93;4.43;;;17.10;99.90;;;;;;5051368;28;20531;-45
2022/07/07 04:43:48;;;;;;;4.87;4.37;;;17.10;99.90;;;;;;5051441;28;20499;-46
2022/07/07 04:46:15;;;;;;;5.10;4.70;;;17.10;99.90;;;;;;5051329;28;20528;-47
2022/07/07 04:48:42;;;;;;;6.50;5.30;;;17.20;99.90;;;;;;5050943;28;20460;-47
2022/07/07 04:51:10;;;;;;;5.90;5.50;;;17.20;99.90;;;;;;5050867;28;20500;-48
2022/07/07 04:53:37;;;;;;;5.50;5.00;;;17.10;99.90;;;;;;5051454;28;20842;-46
2022/07/07 04:56:05;;;;;;;6.40;5.40;;;17.00;99.90;;;;;;5051209;28;20502;-45
2022/07/07 04:58:33;;;;;;;7.10;5.63;;;17.00;99.90;;;;;;5051159;28;20445;-45
2022/07/07 05:01:00;;;;;;;5.50;5.10;;;16.90;99.90;;;;;;5051051;28;20437;-47
2022/07/07 05:03:27;;;;;;;6.53;5.93;;;16.80;99.90;;;;;;5051313;28;20775;-45
2022/07/07 05:05:53;;;;;;;5.50;5.10;;;16.70;99.90;;;;;;5051016;28;20449;-49
2022/07/07 05:08:22;;;;;;;6.43;5.30;;;16.60;99.90;;;;;;5050596;28;20473;-47
2022/07/07 05:10:49;;;;;;;6.07;5.57;;;16.60;99.90;;;;;;5050664;28;20477;-48
2022/07/07 05:13:16;;;;;;;7.70;5.83;;;16.50;99.90;;;;;;5050834;28;20512;-45
2022/07/07 05:15:43;;;;;;;5.90;4.97;;;16.50;99.90;;;;;;5050606;28;20524;-47
2022/07/07 05:18:10;;;;;;;5.67;5.13;;;16.50;99.90;;;;;;5050630;28;20498;-48
2022/07/07 05:20:37;;;;;;;5.90;5.40;;;16.60;99.90;;;;;;5050383;28;20520;-46
2022/07/07 05:23:04;;;;;;;7.27;6.67;;;16.70;99.90;;;;;;5050300;28;20465;-46
2022/07/07 05:25:32;;;;;;;6.30;5.70;;;16.70;99.90;;;;;;5050045;28;20456;-48
2022/07/07 05:27:59;;;;;;;6.13;5.60;;;16.80;99.90;;;;;;5050468;28;20437;-46
2022/07/07 05:30:26;;;;;;;6.00;5.47;;;16.80;99.90;;;;;;5050193;28;20515;-48
2022/07/07 05:32:53;;;;;;;8.57;5.63;;;16.80;99.90;;;;;;5049017;28;20632;-46
2022/07/07 05:35:20;;;;;;;6.43;5.93;;;16.90;99.90;;;;;;5049985;28;20931;-46
2022/07/07 05:37:47;;;;;;;5.87;5.07;;;16.90;99.90;;;;;;5050039;28;20471;-47
2022/07/07 05:40:14;;;;;;;5.30;4.90;;;16.90;99.90;;;;;;5049778;28;20945;-47
2022/07/07 05:42:42;;;;;;;6.00;5.47;;;16.90;99.90;;;;;;5049908;28;20550;-46
2022/07/07 05:45:10;;;;;;;6.10;5.30;;;16.90;99.90;;;;;;5050074;28;20529;-47
2022/07/07 05:47:37;;;;;;;5.93;5.33;;;16.90;99.90;;;;;;5050138;28;20912;-45
2022/07/07 05:50:05;;;;;;;6.50;5.87;;;17.00;99.90;;;;;;5049658;28;20475;-44
2022/07/07 05:52:32;;;;;;;6.03;5.40;;;16.90;99.90;;;;;;5049688;28;20472;-45
2022/07/07 05:54:59;;;;;;;6.53;5.93;;;16.90;99.90;;;;;;5049789;28;20570;-44
2022/07/07 05:57:26;;;;;;;43.60;11.27;;;16.90;99.90;;;;;;5049454;28;20473;-46
2022/07/07 05:59:54;;;;;;;8.80;5.90;;;16.80;99.90;;;;;;5049481;28;21061;-45
2022/07/07 06:02:21;;;;;;;9.23;5.47;;;16.80;99.90;;;;;;5049846;28;20489;-51
2022/07/07 06:04:48;;;;;;;5.80;5.40;;;16.80;99.90;;;;;;5049605;28;20920;-45
2022/07/07 06:07:15;;;;;;;5.70;5.10;;;16.90;99.90;;;;;;5049090;28;20445;-46
2022/07/07 06:09:42;;;;;;;6.10;5.53;;;17.00;99.90;;;;;;5049370;28;20445;-48
2022/07/07 06:12:10;;;;;;;6.00;5.40;;;17.20;99.90;;;;;;5049740;28;20468;-47
2022/07/07 06:14:37;;;;;;;6.50;5.90;;;17.20;99.90;;;;;;5049589;28;20573;-45
2022/07/07 06:17:05;;;;;;;6.40;5.90;;;17.10;99.90;;;;;;5049545;28;20491;-49
2022/07/07 06:19:32;;;;;;;9.20;5.60;;;16.90;99.90;;;;;;5049548;28;20528;-45
2022/07/07 06:21:59;;;;;;;7.50;6.57;;;17.00;99.90;;;;;;5049055;28;20890;-47
2022/07/07 06:24:26;;;;;;;5.90;5.40;;;17.10;99.90;;;;;;5049709;28;20444;-45
2022/07/07 06:26:53;;;;;;;8.03;5.50;;;17.10;99.90;;;;;;5049564;28;20443;-47
2022/07/07 06:29:20;;;;;;;9.47;6.30;;;17.20;99.90;;;;;;5049277;28;20442;-42
2022/07/07 06:31:47;;;;;;;11.53;5.47;;;17.20;99.90;;;;;;5049257;28;20472;-48
2022/07/07 06:34:15;;;;;;;9.97;5.47;;;17.30;99.90;;;;;;5048889;28;21271;-41
2022/07/07 06:36:42;;;;;;;9.70;6.00;;;17.30;99.90;;;;;;5049236;28;20942;-49
2022/07/07 06:39:09;;;;;;;7.27;6.10;;;17.40;99.90;;;;;;5048696;28;20550;-45
2022/07/07 06:41:37;;;;;;;6.87;6.07;;;17.40;99.90;;;;;;5049237;28;20469;-45
2022/07/07 06:44:05;;;;;;;6.20;5.70;;;17.30;99.90;;;;;;5050434;28;20529;-48
2022/07/07 06:46:32;;;;;;;6.43;5.93;;;17.00;99.90;;;;;;5052107;28;20788;-47
2022/07/07 06:48:59;;;;;;;6.67;5.80;;;17.00;99.90;;;;;;5051898;28;20476;-48
2022/07/07 06:51:28;;;;;;;6.97;6.27;;;17.20;99.90;;;;;;5053113;28;20488;-47
2022/07/07 06:53:55;;;;;;;7.40;6.33;;;17.40;99.90;;;;;;5053163;28;20558;-45
2022/07/07 06:56:22;;;;;;;7.30;6.70;;;17.30;99.90;;;;;;5053067;28;20921;-46
2022/07/07 06:58:49;;;;;;;6.60;6.00;;;17.10;99.90;;;;;;5052724;28;20529;-45
2022/07/07 07:01:16;;;;;;;6.87;6.27;;;17.00;99.90;;;;;;5053008;28;20461;-47
2022/07/07 07:03:43;;;;;;;7.77;6.30;;;17.20;99.90;;;;;;5051881;28;20449;-45
2022/07/07 07:06:10;;;;;;;7.63;7.00;;;17.30;99.90;;;;;;5052215;28;20506;-45
2022/07/07 07:08:38;;;;;;;6.80;6.20;;;17.40;99.90;;;;;;5052421;28;20445;-49
2022/07/07 07:11:06;;;;;;;7.40;6.70;;;17.50;99.90;;;;;;5052076;28;20461;-43
2022/07/07 07:13:33;;;;;;;6.83;6.33;;;17.60;99.90;;;;;;5052681;28;20863;-50
2022/07/07 07:16:00;;;;;;;6.43;5.67;;;17.60;99.90;;;;;;5052668;28;20479;-50
2022/07/07 07:18:27;;;;;;;6.07;5.57;;;17.70;99.90;;;;;;5052093;28;20986;-46
2022/07/07 07:20:54;;;;;;;5.80;5.30;;;17.80;99.90;;;;;;5052236;28;20945;-46
2022/07/07 07:23:21;;;;;;;5.60;5.10;;;17.80;99.90;;;;;;5052874;28;20884;-44
2022/07/07 07:25:50;;;;;;;6.50;5.37;;;17.80;99.90;;;;;;5052655;28;20460;-46
2022/07/07 07:28:17;;;;;;;6.13;5.53;;;17.90;99.90;;;;;;5052548;28;20527;-47
2022/07/07 07:30:44;;;;;;;6.80;6.20;;;17.90;99.90;;;;;;5051902;28;20925;-48
2022/07/07 07:33:11;;;;;;;9.53;5.83;;;18.00;99.90;;;;;;5052366;28;20498;-45
2022/07/07 07:35:38;;;;;;;22.17;16.30;;;18.00;99.90;;;;;;5052583;28;20473;-47
2022/07/07 07:38:05;;;;;;;6.33;5.80;;;18.00;99.90;;;;;;5052618;28;20867;-47
2022/07/07 07:40:32;;;;;;;7.33;5.63;;;18.10;99.90;;;;;;5052154;28;20515;-47
2022/07/07 07:43:00;;;;;;;5.90;5.40;;;18.20;99.90;;;;;;5052369;28;20534;-45
2022/07/07 07:45:27;;;;;;;6.10;5.60;;;18.10;99.90;;;;;;5052442;28;20855;-46
2022/07/07 07:47:56;;;;;;;5.57;4.87;;;18.10;99.90;;;;;;5052483;28;20477;-47
2022/07/07 07:50:23;;;;;;;5.40;4.90;;;18.20;99.90;;;;;;5052054;28;20465;-45
2022/07/07 07:52:51;;;;;;;8.43;6.43;;;18.20;99.90;;;;;;5051959;28;20453;-46
2022/07/07 07:55:20;;;;;;;8.57;7.77;;;18.00;99.90;;;;;;5051379;28;20478;-48
2022/07/07 07:57:48;;;;;;;6.13;5.57;;;18.10;99.90;;;;;;5051982;28;20856;-45
2022/07/07 08:00:18;;;;;;;5.60;4.67;;;18.20;99.90;;;;;;5051365;28;21028;-48
2022/07/07 08:02:46;;;;;;;9.90;8.10;;;18.20;99.90;;;;;;5051872;28;20464;-48
2022/07/07 08:05:13;;;;;;;5.90;5.50;;;18.20;99.90;;;;;;5052003;28;20499;-48
2022/07/07 08:07:41;;;;;;;6.97;6.37;;;18.20;99.90;;;;;;5051717;28;20958;-45
2022/07/07 08:10:10;;;;;;;6.73;6.10;;;18.20;99.90;;;;;;5050516;28;20990;-46
2022/07/07 08:12:37;;;;;;;6.90;6.20;;;18.40;99.90;;;;;;5050738;28;20454;-46
2022/07/07 08:15:06;;;;;;;7.10;6.47;;;18.50;99.90;;;;;;5051700;28;20472;-48
2022/07/07 08:17:34;;;;;;;6.00;5.43;;;18.60;99.90;;;;;;5051135;28;20441;-42
2022/07/07 08:20:01;;;;;;;5.70;5.30;;;18.80;99.90;;;;;;5050446;28;20449;-46
2022/07/07 08:22:28;;;;;;;6.67;5.87;;;18.80;99.90;;;;;;5051703;28;20469;-48
2022/07/07 08:24:55;;;;;;;6.90;6.30;;;18.90;99.90;;;;;;5051464;28;20433;-46
2022/07/07 08:27:23;;;;;;;7.63;6.33;;;19.00;99.90;;;;;;5051395;28;20515;-48
2022/07/07 08:29:50;;;;;;;7.20;6.60;;;19.00;99.90;;;;;;5051150;28;20491;-50
2022/07/07 08:32:17;;;;;;;7.97;5.60;;;18.80;99.90;;;;;;5051531;28;20532;-47
2022/07/07 08:34:46;;;;;;;12.30;5.93;;;18.80;99.90;;;;;;5051407;28;20464;-49
2022/07/07 08:37:13;;;;;;;8.30;6.30;;;18.90;99.90;;;;;;5051024;28;20932;-47
2022/07/07 08:39:40;;;;;;;9.27;6.80;;;18.90;99.90;;;;;;5050890;28;20891;-44
2022/07/07 08:42:07;;;;;;;6.00;5.60;;;18.90;99.90;;;;;;5050995;28;20505;-47
2022/07/07 08:44:35;;;;;;;6.57;5.67;;;18.90;99.90;;;;;;5051003;28;20441;-43
2022/07/07 08:47:02;;;;;;;7.17;6.47;;;18.90;99.90;;;;;;5051239;28;20468;-45
2022/07/07 08:49:29;;;;;;;8.30;7.23;;;18.90;99.90;;;;;;5051049;28;20461;-48
2022/07/07 08:51:58;;;;;;;7.90;7.20;;;18.60;99.90;;;;;;5050714;28;20540;-45
2022/07/07 08:54:26;;;;;;;8.00;7.40;;;18.70;99.90;;;;;;5050863;28;21036;-47
2022/07/07 08:56:54;;;;;;;7.50;6.80;;;18.60;99.90;;;;;;5050881;28;20437;-47
2022/07/07 08:59:21;;;;;;;7.90;7.20;;;18.70;99.90;;;;;;5050694;28;20472;-47
2022/07/07 09:01:55;;;;;;;7.77;7.10;;;18.70;99.90;;;;;;5050785;28;20453;-46
2022/07/07 09:04:22;;;;;;;9.40;6.90;;;18.70;99.90;;;;;;5050914;28;20851;-45
2022/07/07 09:06:57;;;;;;;9.60;6.50;;;18.70;99.90;;;;;;5049869;28;20429;-49
2022/07/07 09:09:42;;;;;;;7.87;7.07;;;18.70;99.90;;;;;;5050629;28;20428;-46
2022/07/07 09:12:12;;;;;;;7.30;6.70;;;18.70;99.90;;;;;;5050617;28;20453;-48
2022/07/07 09:14:41;;;;;;;10.13;7.57;;;18.70;99.90;;;;;;5050446;28;20469;-50
2022/07/07 09:17:16;;;;;;;7.53;6.77;;;18.70;99.90;;;;;;5050887;28;20511;-48
2022/07/07 09:19:45;;;;;;;7.60;7.00;;;18.80;99.90;;;;;;5050400;28;20443;-49
2022/07/07 09:22:13;;;;;;;7.57;7.07;;;18.90;99.90;;;;;;5050514;28;20453;-48
2022/07/07 09:24:56;;;;;;;6.43;5.93;;;19.00;99.90;;;;;;5050368;28;20926;-46
2022/07/07 09:27:23;;;;;;;7.40;6.80;;;19.10;99.90;;;;;;5050587;28;20441;-45
2022/07/07 09:29:50;;;;;;;8.07;7.27;;;19.20;99.90;;;;;;5049780;28;20434;-45
2022/07/07 09:32:17;;;;;;;8.07;7.30;;;19.30;99.90;;;;;;5050170;28;20496;-47
2022/07/07 09:34:44;;;;;;;11.63;7.17;;;19.20;99.90;;;;;;5049003;28;20465;-46
2022/07/07 09:39:58;;;;;;;7.20;6.60;;;19.10;99.90;;;;;;5049785;28;20419;-46
2022/07/07 09:42:27;;;;;;;6.60;5.97;;;19.20;99.90;;;;;;5051102;28;20461;-46
2022/07/07 09:45:00;;;;;;;8.37;7.77;;;19.30;99.90;;;;;;5050028;28;20982;-49
2022/07/07 09:47:27;;;;;;;6.67;6.10;;;19.20;99.90;;;;;;5050027;28;21001;-46
2022/07/07 09:50:01;;;;;;;8.80;7.93;;;19.20;99.90;;;;;;5049677;28;20524;-48
2022/07/07 09:52:31;;;;;;;6.33;5.83;;;19.30;99.90;;;;;;5049880;28;20949;-46
2022/07/07 09:54:59;;;;;;;5.93;5.43;;;19.40;99.90;;;;;;5049754;28;20481;-48
2022/07/07 09:57:26;;;;;;;7.47;6.87;;;19.30;99.90;;;;;;5049923;28;20482;-48
2022/07/07 09:59:54;;;;;;;8.83;6.20;;;19.30;99.90;;;;;;5049864;28;20437;-46
2022/07/07 10:02:24;;;;;;;7.20;6.23;;;19.20;99.90;;;;;;5050083;28;20491;-44
2022/07/07 10:04:53;;;;;;;6.77;6.17;;;19.20;99.90;;;;;;5049823;28;20699;-46
2022/07/07 10:07:22;;;;;;;7.73;6.27;;;19.00;99.90;;;;;;5049659;28;20973;-47
2022/07/07 10:09:55;;;;;;;7.13;6.40;;;18.80;99.90;;;;;;5049344;28;20441;-47
2022/07/07 10:12:24;;;;;;;10.63;7.90;;;18.70;99.90;;;;;;5049171;28;20481;-51
2022/07/07 10:14:54;;;;;;;8.83;8.00;;;18.60;99.90;;;;;;5049477;28;20543;-48
2022/07/07 10:17:22;;;;;;;8.27;7.67;;;18.50;99.90;;;;;;5049698;28;20465;-50
2022/07/07 10:19:49;;;;;;;8.10;7.40;;;18.50;99.90;;;;;;5049015;28;20465;-48
2022/07/07 10:22:17;;;;;;;9.13;8.33;;;18.40;99.90;;;;;;5049099;28;20496;-45
2022/07/07 10:24:45;;;;;;;10.13;9.20;;;18.40;99.90;;;;;;5048592;28;20449;-46
2022/07/07 10:27:21;;;;;;;9.80;8.90;;;18.50;99.90;;;;;;5049538;28;20906;-47
2022/07/07 10:29:50;;;;;;;8.40;7.80;;;18.50;99.90;;;;;;5049412;28;20989;-46
2022/07/07 10:32:19;;;;;;;9.23;8.43;;;18.50;99.90;;;;;;5048812;28;20480;-46
2022/07/07 10:34:50;;;;;;;11.93;8.97;;;18.50;99.90;;;;;;5049388;28;20453;-49
2022/07/07 10:37:18;;;;;;;10.03;9.13;;;18.50;99.90;;;;;;5049416;28;20670;-46
2022/07/07 10:39:47;;;;;;;10.37;9.47;;;18.70;99.90;;;;;;5049163;28;20441;-46
2022/07/07 10:42:35;;;;;;;16.30;14.00;;;18.80;99.90;;;;;;5049174;28;20492;-49
2022/07/07 10:45:05;;;;;;;11.40;10.27;;;18.90;99.90;;;;;;5049600;28;20445;-47
2022/07/07 10:47:33;;;;;;;9.50;8.80;;;19.00;99.90;;;;;;5048289;28;20938;-45
2022/07/07 10:50:01;;;;;;;10.03;9.10;;;19.00;99.90;;;;;;5048500;28;20445;-46
2022/07/07 10:52:29;;;;;;;9.87;8.97;;;19.10;99.90;;;;;;5048932;28;20954;-46
2022/07/07 10:55:02;;;;;;;9.47;8.77;;;19.20;99.90;;;;;;5049484;28;20486;-47
2022/07/07 10:57:40;;;;;;;10.17;9.07;;;19.30;99.90;;;;;;5049482;28;20441;-47
2022/07/07 11:00:11;;;;;;;12.73;9.90;;;19.40;99.90;;;;;;5048546;28;20433;-50
2022/07/07 11:02:41;;;;;;;8.93;8.13;;;19.40;99.90;;;;;;5049179;28;20532;-48
2022/07/07 11:05:27;;;;;;;9.13;8.43;;;19.50;99.90;;;;;;5049088;28;20441;-47
2022/07/07 11:08:16;;;;;;;8.70;8.00;;;19.60;99.90;;;;;;5048674;28;20537;-46
2022/07/07 11:10:57;;;;;;;9.80;8.90;;;19.60;99.90;;;;;;5048707;28;20840;-46
2022/07/07 11:13:31;;;;;;;9.77;8.90;;;19.50;99.90;;;;;;5049165;28;20825;-48
2022/07/07 11:16:16;;;;;;;7.57;6.97;;;19.60;99.90;;;;;;5049464;28;20476;-50
2022/07/07 11:18:47;;;;;;;7.67;7.07;;;19.70;99.90;;;;;;5049367;28;20750;-46
2022/07/07 11:21:15;;;;;;;9.40;8.70;;;19.60;99.90;;;;;;5049320;28;20492;-48
2022/07/07 11:23:48;;;;;;;9.10;8.30;;;19.50;99.90;;;;;;5049578;28;20768;-47
2022/07/07 11:26:22;;;;;;;8.83;7.70;;;19.50;99.90;;;;;;5049266;28;20507;-49
2022/07/07 11:28:52;;;;;;;8.53;7.70;;;19.20;99.90;;;;;;5049344;28;20452;-47
2022/07/07 11:31:19;;;;;;;8.70;7.90;;;19.20;99.90;;;;;;5051757;28;21035;-45
2022/07/07 11:33:51;;;;;;;9.83;9.03;;;19.20;99.90;;;;;;5053254;28;20456;-46
2022/07/07 11:36:20;;;;;;;10.40;9.27;;;19.10;99.90;;;;;;5052936;28;20505;-45
2022/07/07 11:38:49;;;;;;;10.63;9.73;;;19.20;99.90;;;;;;5052865;28;20443;-44
2022/07/07 11:41:16;;;;;;;22.83;10.00;;;18.90;99.90;;;;;;5052896;28;20530;-48
2022/07/07 11:43:43;;;;;;;8.83;8.03;;;18.70;99.90;;;;;;5053113;28;20433;-46
2022/07/07 11:46:12;;;;;;;10.53;9.03;;;18.70;99.90;;;;;;5053124;28;20495;-50
2022/07/07 11:48:41;;;;;;;27.53;9.57;;;18.50;99.90;;;;;;5053111;28;21004;-48
2022/07/07 11:51:09;;;;;;;10.03;9.23;;;18.30;99.90;;;;;;5052573;28;20453;-45
2022/07/07 11:53:36;;;;;;;11.43;10.43;;;18.30;99.90;;;;;;5052417;28;20456;-46
2022/07/07 11:56:03;;;;;;;9.40;8.60;;;18.40;99.90;;;;;;5052053;28;20477;-48
2022/07/07 11:58:30;;;;;;;9.90;9.10;;;18.40;99.90;;;;;;5052406;28;20930;-45
2022/07/07 12:00:58;;;;;;;9.43;8.53;;;18.40;99.90;;;;;;5051665;28;20953;-48
2022/07/07 12:03:35;;;;;;;8.60;7.80;;;18.40;99.90;;;;;;5052257;28;20473;-45
2022/07/07 12:06:03;;;;;;;8.37;7.33;;;18.30;99.90;;;;;;5052095;28;20938;-48
2022/07/07 12:08:35;;;;;;;9.00;8.20;;;18.30;99.90;;;;;;5051856;28;20524;-48
2022/07/07 12:11:03;;;;;;;10.03;8.47;;;18.40;99.90;;;;;;5051764;28;20504;-45
2022/07/07 12:13:30;;;;;;;9.90;7.60;;;18.30;99.90;;;;;;5051811;28;20818;-49
2022/07/07 12:15:58;;;;;;;10.80;9.70;;;18.20;99.90;;;;;;5051881;28;20473;-46
2022/07/07 12:18:36;;;;;;;8.70;7.80;;;18.20;99.90;;;;;;5051889;28;20438;-47
2022/07/07 12:21:05;;;;;;;9.73;8.30;;;18.40;99.90;;;;;;5051487;28;20817;-47
2022/07/07 12:23:37;;;;;;;8.73;7.70;;;18.40;99.90;;;;;;5051903;28;20429;-47
2022/07/07 12:26:14;;;;;;;8.93;8.10;;;18.30;99.90;;;;;;5051889;28;20926;-45
2022/07/07 12:28:41;;;;;;;11.83;8.50;;;18.10;99.90;;;;;;5051786;28;20862;-49
2022/07/07 12:31:09;;;;;;;10.57;9.67;;;18.20;99.90;;;;;;5051782;28;20515;-45
2022/07/07 12:33:38;;;;;;;9.47;8.70;;;18.20;99.90;;;;;;5051785;28;20499;-46
2022/07/07 12:36:10;;;;;;;9.77;8.80;;;18.30;99.90;;;;;;5051442;28;20527;-50
2022/07/07 12:38:39;;;;;;;9.57;8.77;;;18.20;99.90;;;;;;5051487;28;20449;-45
2022/07/07 12:41:07;;;;;;;9.30;8.50;;;18.30;99.90;;;;;;5051113;28;20465;-47
2022/07/07 12:43:35;;;;;;;10.13;9.27;;;18.20;99.90;;;;;;5051505;28;21007;-49
2022/07/07 12:46:07;;;;;;;10.57;8.37;;;18.20;99.90;;;;;;5051384;28;20511;-43
2022/07/07 12:48:44;;;;;;;10.00;9.00;;;18.10;99.90;;;;;;5051308;28;20503;-45
2022/07/07 12:51:12;;;;;;;9.67;8.87;;;18.20;99.90;;;;;;5050987;28;20540;-45
2022/07/07 12:53:39;;;;;;;9.33;8.53;;;18.10;99.90;;;;;;5051307;28;20430;-45